Time;durP1;ratioP1;P1;durP2;ratioP2;P2;SDS_P1;SDS_P2;PMS_P1;PMS_P2;Temp;Humidity;BMP_temperature;BMP_pressure;BME280_temperature;BME280_humidity;BME280_pressure;Samples;Min_cycle;Max_cycle;Signal;HPM_P1;HPM_P2
2023/10/30 00:00:09;;;;;;;11.52;4.18;;;;;;;12.99;100.00;99341.13;5055278;28;20059;-82
2023/10/30 00:02:36;;;;;;;9.15;4.90;;;;;;;12.92;100.00;99353.16;5056698;28;20040;-82
2023/10/30 00:05:03;;;;;;;10.48;4.95;;;;;;;12.80;100.00;99336.56;5059392;28;20029;-84
2023/10/30 00:07:30;;;;;;;7.60;5.22;;;;;;;12.81;100.00;99356.09;5057943;28;20079;-82
2023/10/30 00:09:56;;;;;;;15.10;5.07;;;;;;;12.71;100.00;99354.84;5055927;28;20025;-84
2023/10/30 00:12:22;;;;;;;8.30;4.97;;;;;;;12.72;100.00;99355.63;5056002;28;20036;-84
2023/10/30 00:14:50;;;;;;;7.60;4.40;;;;;;;12.58;100.00;99346.88;5055645;28;20434;-82
2023/10/30 00:17:16;;;;;;;12.93;5.32;;;;;;;12.54;100.00;99349.25;5054422;28;20024;-84
2023/10/30 00:19:41;;;;;;;12.48;4.93;;;;;;;12.66;100.00;99341.34;5055333;28;20094;-83
2023/10/30 00:22:10;;;;;;;6.97;4.70;;;;;;;12.62;100.00;99358.81;5054813;28;20413;-82
2023/10/30 00:24:39;;;;;;;9.45;5.53;;;;;;;12.64;100.00;99355.44;5054521;28;20033;-82
2023/10/30 00:27:06;;;;;;;11.75;6.22;;;;;;;12.67;100.00;99357.22;5055417;28;20040;-83
2023/10/30 00:29:38;;;;;;;7.97;4.70;;;;;;;12.56;100.00;99360.94;5066599;28;20029;-82
2023/10/30 00:32:05;;;;;;;11.48;5.38;;;;;;;12.63;100.00;99377.59;5072241;28;20025;-81
2023/10/30 00:34:32;;;;;;;8.77;4.68;;;;;;;12.48;100.00;99353.44;5068490;28;20037;-82
2023/10/30 00:36:57;;;;;;;11.70;4.97;;;;;;;12.63;100.00;99366.13;5056671;28;20055;-82
2023/10/30 00:39:24;;;;;;;11.32;5.47;;;;;;;12.49;100.00;99347.19;5054678;28;20021;-83
2023/10/30 00:41:50;;;;;;;11.75;5.82;;;;;;;12.65;100.00;99377.06;5055416;28;20025;-83
2023/10/30 00:44:15;;;;;;;8.80;4.68;;;;;;;12.55;100.00;99339.31;5087134;28;20485;-85
2023/10/30 00:46:43;;;;;;;10.63;5.00;;;;;;;12.60;100.00;99349.22;5052904;28;20061;-84
2023/10/30 00:49:10;;;;;;;9.63;4.60;;;;;;;12.49;100.00;99344.31;5055476;28;20048;-84
2023/10/30 00:51:36;;;;;;;11.02;5.07;;;;;;;12.41;100.00;99331.06;5055381;28;20029;-83
2023/10/30 00:54:04;;;;;;;8.57;4.40;;;;;;;12.76;100.00;99379.06;5055060;28;20029;-83
2023/10/30 00:56:30;;;;;;;6.97;4.30;;;;;;;12.77;100.00;99354.81;5054929;28;20029;-84
2023/10/30 00:58:56;;;;;;;9.60;4.63;;;;;;;12.78;100.00;99362.13;5055047;28;20025;-83
2023/10/30 01:01:25;;;;;;;12.00;4.55;;;;;;;12.91;100.00;99362.28;5054757;28;20109;-84
2023/10/30 01:03:52;;;;;;;12.73;5.03;;;;;;;12.89;100.00;99359.19;5055356;28;20051;-83
2023/10/30 01:06:18;;;;;;;8.27;4.65;;;;;;;12.80;100.00;99336.56;5036398;28;20056;-84
2023/10/30 01:08:44;;;;;;;9.73;5.85;;;;;;;12.88;100.00;99349.00;5051835;28;20452;-84
2023/10/30 01:11:09;;;;;;;13.63;5.70;;;;;;;12.77;100.00;99326.16;5034783;28;20071;-83
2023/10/30 01:13:38;;;;;;;9.07;5.40;;;;;;;12.75;100.00;99332.41;5053478;28;20064;-83
2023/10/30 01:16:05;;;;;;;12.55;5.88;;;;;;;12.85;100.00;99338.63;5053297;28;20028;-82
2023/10/30 01:18:31;;;;;;;11.80;4.93;;;;;;;12.77;100.00;99326.16;5053109;28;20028;-85
2023/10/30 01:20:58;;;;;;;9.55;5.13;;;;;;;12.67;100.00;99312.16;5053284;28;20025;-83
2023/10/30 01:23:23;;;;;;;11.05;4.47;;;;;;;12.84;100.00;99342.78;5053223;28;20029;-83
2023/10/30 01:25:51;;;;;;;6.32;4.32;;;;;;;12.74;100.00;99321.50;5053170;28;20029;-86
2023/10/30 01:28:16;;;;;;;7.57;4.30;;;;;;;12.85;100.00;99336.50;5053944;28;20077;-84
2023/10/30 01:30:52;;;;;;;6.55;4.32;;;;;;;12.93;100.00;99346.13;5053478;28;20032;-83
2023/10/30 01:33:19;;;;;;;8.63;4.95;;;;;;;12.80;100.00;99339.44;5052164;28;20531;-84
2023/10/30 01:35:45;;;;;;;7.38;3.88;;;;;;;12.90;100.00;99337.81;5052806;28;20490;-83
2023/10/30 01:38:11;;;;;;;7.93;3.55;;;;;;;12.89;100.00;99339.88;5053743;28;20032;-83
2023/10/30 01:40:48;;;;;;;6.47;3.65;;;;;;;12.87;100.00;99339.63;5036393;28;20021;-85
2023/10/30 01:43:14;;;;;;;9.32;4.65;;;;;;;12.84;100.00;99328.47;5053230;28;20025;-85
2023/10/30 01:45:41;;;;;;;7.40;3.83;;;;;;;12.65;100.00;99291.06;5056469;28;20029;-83
2023/10/30 01:48:08;;;;;;;13.63;4.55;;;;;;;12.84;100.00;99312.03;5058264;28;20050;-82
2023/10/30 01:50:36;;;;;;;7.38;4.15;;;;;;;12.85;100.00;99325.03;5058165;28;20395;-83
2023/10/30 01:53:03;;;;;;;8.05;3.97;;;;;;;12.80;100.00;99316.50;5057072;28;20025;-82
2023/10/30 01:55:29;;;;;;;9.77;4.18;;;;;;;12.64;100.00;99290.28;5058101;28;20033;-82
2023/10/30 01:57:56;;;;;;;7.97;4.07;;;;;;;12.70;100.00;99307.47;5057114;28;20025;-83
2023/10/30 02:00:23;;;;;;;5.57;4.22;;;;;;;12.62;100.00;99287.16;5056905;28;20021;-81
2023/10/30 02:02:51;;;;;;;6.80;4.43;;;;;;;12.72;100.00;99312.63;5058164;28;20470;-84
2023/10/30 02:05:17;;;;;;;6.97;3.45;;;;;;;12.68;100.00;99310.84;5040518;28;20048;-83
2023/10/30 02:07:43;;;;;;;7.70;3.90;;;;;;;12.58;100.00;99283.03;5058249;28;20100;-82
2023/10/30 02:10:11;;;;;;;7.75;4.03;;;;;;;12.67;100.00;99302.78;5058308;28;20563;-83
2023/10/30 02:12:49;;;;;;;6.05;3.90;;;;;;;12.70;100.00;99313.94;5058570;28;20025;-83
2023/10/30 02:15:16;;;;;;;8.15;3.60;;;;;;;12.55;100.00;99298.44;5059009;28;20036;-83
2023/10/30 02:17:42;;;;;;;6.25;3.45;;;;;;;12.47;100.00;99283.09;5057146;28;20079;-83
2023/10/30 02:20:11;;;;;;;9.15;4.13;;;;;;;12.51;100.00;99295.06;5057992;28;20355;-83
2023/10/30 02:22:38;;;;;;;5.85;3.42;;;;;;;12.70;100.00;99345.47;5040250;28;20025;-83
2023/10/30 02:25:09;;;;;;;7.60;3.65;;;;;;;12.74;100.00;99338.69;5040717;28;20036;-83
2023/10/30 02:27:36;;;;;;;15.07;3.20;;;;;;;12.63;100.00;99311.66;5090605;28;20548;-84
2023/10/30 02:30:03;;;;;;;8.50;3.22;;;;;;;12.55;100.00;99302.06;5055964;28;20029;-84
2023/10/30 02:32:29;;;;;;;9.38;3.00;;;;;;;12.86;100.00;99332.34;5057653;28;20031;-84
2023/10/30 02:35:02;;;;;;;5.72;3.03;;;;;;;12.89;100.00;99330.50;5057763;28;20115;-82
2023/10/30 02:37:28;;;;;;;6.80;2.42;;;;;;;12.89;100.00;99330.50;5056369;28;20079;-83
2023/10/30 02:39:53;;;;;;;6.85;3.35;;;;;;;12.72;100.00;99310.56;5040102;28;20429;-84
2023/10/30 02:42:21;;;;;;;8.80;3.40;;;;;;;12.85;100.00;99336.50;5055746;28;20025;-84
2023/10/30 02:44:46;;;;;;;5.18;3.08;;;;;;;12.83;100.00;99335.50;5055958;28;20037;-84
2023/10/30 02:47:13;;;;;;;5.78;2.78;;;;;;;12.80;100.00;99334.47;5058422;28;20039;-84
2023/10/30 02:49:39;;;;;;;5.80;3.45;;;;;;;12.80;100.00;99337.31;5058392;28;20106;-83
2023/10/30 02:52:04;;;;;;;6.18;3.83;;;;;;;12.74;100.00;99315.75;5056771;28;20067;-83
2023/10/30 02:54:31;;;;;;;7.22;3.78;;;;;;;12.78;100.00;99331.38;5055402;28;20029;-84
2023/10/30 02:56:57;;;;;;;5.47;3.95;;;;;;;12.68;100.00;99319.44;5055425;28;20112;-83
2023/10/30 02:59:23;;;;;;;5.47;3.10;;;;;;;12.68;100.00;99324.41;5057431;28;20373;-84
2023/10/30 03:01:49;;;;;;;4.60;3.08;;;;;;;12.63;100.00;99311.66;5056816;28;20029;-84
2023/10/30 03:04:16;;;;;;;7.07;2.40;;;;;;;12.75;100.00;99323.81;5056938;28;20058;-84
2023/10/30 03:06:42;;;;;;;4.47;2.63;;;;;;;12.89;100.00;99351.34;5056984;28;20121;-84
2023/10/30 03:09:08;;;;;;;5.00;2.45;;;;;;;12.84;100.00;99345.66;5039007;28;20189;-84
2023/10/30 03:11:34;;;;;;;3.22;2.80;;;;;;;12.86;100.00;99360.22;5057240;28;20037;-85
2023/10/30 03:14:01;;;;;;;5.70;2.58;;;;;;;12.89;100.00;99362.06;5057215;28;20028;-83
2023/10/30 03:16:27;;;;;;;6.40;2.20;;;;;;;12.90;100.00;99369.34;5056144;28;20032;-84
2023/10/30 03:18:53;;;;;;;4.63;2.25;;;;;;;12.81;100.00;99355.31;5056624;28;20025;-84
2023/10/30 03:21:19;;;;;;;3.20;2.22;;;;;;;12.82;100.00;99366.25;5038937;28;20387;-85
2023/10/30 03:23:46;;;;;;;3.45;2.40;;;;;;;12.53;100.00;99335.44;5055452;28;20040;-84
2023/10/30 03:26:12;;;;;;;7.85;2.40;;;;;;;12.60;100.00;99346.34;5038847;28;20409;-83
2023/10/30 03:28:37;;;;;;;4.30;1.95;;;;;;;12.81;100.00;99364.69;5056743;28;20029;-83
2023/10/30 03:31:07;;;;;;;4.03;2.00;;;;;;;12.80;100.00;99357.38;5056136;28;20036;-85
2023/10/30 03:33:33;;;;;;;5.38;2.20;;;;;;;12.84;100.00;99368.59;5039014;28;20508;-84
2023/10/30 03:36:02;;;;;;;4.90;1.67;;;;;;;12.86;100.00;99358.13;5056491;28;20031;-84
2023/10/30 03:38:28;;;;;;;4.10;2.55;;;;;;;12.90;100.00;99366.47;5038332;28;20041;-85
2023/10/30 03:40:55;;;;;;;2.50;2.22;;;;;;;12.88;100.00;99363.34;5056135;28;20455;-83
2023/10/30 03:43:21;;;;;;;5.25;1.65;;;;;;;12.79;100.00;99350.13;5057032;28;20029;-84
2023/10/30 03:45:47;;;;;;;2.60;1.50;;;;;;;12.92;100.00;99363.84;5058766;28;20050;-84
2023/10/30 03:48:14;;;;;;;4.88;1.77;;;;;;;13.02;100.00;99362.19;5058854;28;20048;-84
2023/10/30 03:50:39;;;;;;;2.47;1.77;;;;;;;13.03;100.00;99358.81;5057930;28;20036;-86
2023/10/30 03:53:06;;;;;;;9.07;2.33;;;;;;;12.97;100.00;99354.41;5038767;28;20025;-85
2023/10/30 03:55:32;;;;;;;1.60;1.50;;;;;;;12.99;100.00;99363.28;5057158;28;20024;-85
2023/10/30 03:57:57;;;;;;;4.25;1.95;;;;;;;13.07;100.00;99375.72;5056178;28;20178;-85
2023/10/30 04:00:24;;;;;;;4.80;1.85;;;;;;;13.04;100.00;99380.44;5055655;28;20482;-84
2023/10/30 04:02:50;;;;;;;5.05;2.20;;;;;;;12.92;100.00;99356.03;5054948;28;20035;-83
2023/10/30 04:05:16;;;;;;;4.68;2.15;;;;;;;12.89;100.00;99356.31;5056032;28;20114;-83
2023/10/30 04:07:41;;;;;;;3.42;1.77;;;;;;;12.82;100.00;99365.47;5055427;28;20448;-83
2023/10/30 04:10:07;;;;;;;3.60;2.00;;;;;;;12.81;100.00;99386.84;5055369;28;20025;-85
2023/10/30 04:12:33;;;;;;;2.15;1.95;;;;;;;12.80;100.00;99391.78;5056660;28;20032;-86
2023/10/30 04:15:00;;;;;;;3.55;2.00;;;;;;;12.83;100.00;99412.91;5054954;28;20025;-85
2023/10/30 04:17:26;;;;;;;2.28;1.80;;;;;;;12.65;100.00;99389.28;5056063;28;20112;-85
2023/10/30 04:19:53;;;;;;;1.65;1.50;;;;;;;12.62;100.00;99387.47;5054699;28;20390;-86
2023/10/30 04:22:18;;;;;;;4.60;1.80;;;;;;;12.67;100.00;99400.22;5055460;28;20028;-85
2023/10/30 04:24:44;;;;;;;3.28;1.77;;;;;;;12.62;100.00;99407.56;5055809;28;20039;-85
2023/10/30 04:27:10;;;;;;;4.13;1.80;;;;;;;12.66;100.00;99408.03;5053910;28;20044;-83
2023/10/30 04:29:36;;;;;;;5.30;2.03;;;;;;;12.52;100.00;99388.31;5055211;28;20029;-84
2023/10/30 04:32:03;;;;;;;6.25;2.55;;;;;;;12.64;100.00;99395.56;5055340;28;20036;-87
2023/10/30 04:34:29;;;;;;;5.20;1.80;;;;;;;12.78;100.00;99416.59;5055619;28;20033;-84
2023/10/30 04:36:57;;;;;;;3.17;2.10;;;;;;;12.87;100.00;99417.06;5054925;28;20025;-86
2023/10/30 04:39:23;;;;;;;2.92;2.05;;;;;;;12.91;100.00;99420.41;5055728;28;20509;-84
2023/10/30 04:41:48;;;;;;;3.17;2.13;;;;;;;12.65;100.00;99379.94;5054412;28;20060;-83
2023/10/30 04:44:18;;;;;;;2.55;1.70;;;;;;;12.98;100.00;99437.06;5053758;28;20032;-85
2023/10/30 04:46:43;;;;;;;2.55;1.90;;;;;;;13.03;100.00;99424.78;5057368;28;20107;-84
2023/10/30 04:49:08;;;;;;;3.22;2.20;;;;;;;13.06;100.00;99440.91;5039739;28;20083;-85
2023/10/30 04:51:34;;;;;;;2.78;1.88;;;;;;;12.97;100.00;99411.78;5056561;28;20484;-85
2023/10/30 04:54:01;;;;;;;4.68;3.33;;;;;;;13.02;100.00;99411.75;5055157;28;20025;-85
2023/10/30 04:56:28;;;;;;;4.10;1.85;;;;;;;13.10;100.00;99427.06;5055253;28;20040;-84
2023/10/30 04:58:53;;;;;;;3.45;2.05;;;;;;;13.06;100.00;99415.09;5054346;28;20032;-85
2023/10/30 05:01:22;;;;;;;4.03;2.40;;;;;;;13.11;100.00;99440.09;5054163;28;20527;-84
2023/10/30 05:03:48;;;;;;;2.75;2.03;;;;;;;13.04;100.00;99422.69;5069100;28;20477;-85
2023/10/30 05:06:20;;;;;;;4.78;1.88;;;;;;;13.07;100.00;99433.09;5052867;28;20040;-83
2023/10/30 05:08:45;;;;;;;4.70;2.33;;;;;;;12.78;100.00;99390.78;5052708;28;20037;-84
2023/10/30 05:11:15;;;;;;;2.83;1.95;;;;;;;12.95;100.00;99420.91;5053202;28;20025;-84
2023/10/30 05:13:40;;;;;;;3.35;2.25;;;;;;;12.88;100.00;99421.47;5052744;28;20366;-83
2023/10/30 05:16:06;;;;;;;3.95;2.72;;;;;;;12.81;100.00;99424.91;5054056;28;20466;-85
2023/10/30 05:18:32;;;;;;;3.28;2.20;;;;;;;12.74;100.00;99424.69;5053795;28;20027;-82
2023/10/30 05:20:58;;;;;;;4.95;2.65;;;;;;;12.65;100.00;99420.81;5053248;28;20107;-83
2023/10/30 05:23:25;;;;;;;4.22;2.58;;;;;;;12.60;100.00;99418.00;5052770;28;20047;-84
2023/10/30 05:25:53;;;;;;;5.25;2.42;;;;;;;12.53;100.00;99424.28;5055007;28;20025;-82
2023/10/30 05:28:18;;;;;;;3.70;2.60;;;;;;;12.46;100.00;99436.28;5054569;28;20112;-84
2023/10/30 05:30:48;;;;;;;7.20;2.75;;;;;;;12.33;100.00;99422.50;5054011;28;20407;-83
2023/10/30 05:33:15;;;;;;;3.33;2.58;;;;;;;12.29;100.00;99436.31;5019515;28;20087;-83
2023/10/30 05:35:41;;;;;;;5.68;3.13;;;;;;;12.26;100.00;99440.22;5054423;28;20036;-84
2023/10/30 05:38:08;;;;;;;8.73;3.95;;;;;;;12.15;100.00;99425.97;5053318;28;20048;-85
2023/10/30 05:40:34;;;;;;;3.05;2.75;;;;;;;12.10;100.00;99421.81;5036526;28;20059;-84
2023/10/30 05:43:02;;;;;;;4.97;2.90;;;;;;;12.25;100.00;99441.56;5053588;28;20381;-86
2023/10/30 05:45:29;;;;;;;4.68;2.60;;;;;;;12.21;100.00;99438.94;5054485;28;20043;-86
2023/10/30 05:47:56;;;;;;;3.08;2.58;;;;;;;12.14;100.00;99424.41;5036214;28;20029;-86
2023/10/30 05:50:23;;;;;;;4.75;2.38;;;;;;;12.26;100.00;99440.22;5054417;28;20040;-85
2023/10/30 05:52:49;;;;;;;4.38;3.03;;;;;;;12.31;100.00;99438.69;5053882;28;20382;-85
2023/10/30 05:55:16;;;;;;;8.32;4.20;;;;;;;12.35;100.00;99433.44;5051926;28;20429;-85
2023/10/30 05:57:45;;;;;;;4.63;2.90;;;;;;;12.36;100.00;99430.06;5052925;28;20063;-83
2023/10/30 06:00:13;;;;;;;3.97;2.58;;;;;;;12.42;100.00;99427.97;5053965;28;20096;-83
2023/10/30 06:02:40;;;;;;;4.50;2.55;;;;;;;12.46;100.00;99439.91;5053834;28;20104;-82
2023/10/30 06:05:12;;;;;;;3.00;2.42;;;;;;;12.48;100.00;99428.72;5054282;28;20056;-84
2023/10/30 06:07:46;;;;;;;3.83;2.55;;;;;;;12.60;100.00;99449.53;5054132;28;20029;-81
2023/10/30 06:10:11;;;;;;;4.57;2.75;;;;;;;12.61;100.00;99436.72;5052880;28;20478;-81
2023/10/30 06:12:38;;;;;;;3.35;2.15;;;;;;;12.76;100.00;99447.84;5052965;28;20036;-81
2023/10/30 06:15:08;;;;;;;7.22;3.08;;;;;;;12.73;100.00;99420.25;5085799;28;20037;-83
2023/10/30 06:17:35;;;;;;;4.43;2.40;;;;;;;12.93;100.00;99452.22;5035975;28;20134;-81
2023/10/30 06:20:03;;;;;;;11.13;4.97;;;;;;;13.02;100.00;99460.50;5051802;28;20020;-78
2023/10/30 06:22:30;;;;;;;7.30;5.05;;;;;;;13.12;100.00;99484.69;5051879;28;20024;-79
2023/10/30 06:25:00;;;;;;;5.30;3.40;;;;;;;13.20;100.00;99479.16;5051934;28;20101;-80
2023/10/30 06:27:26;;;;;;;5.45;2.65;;;;;;;13.28;100.00;99473.63;5053868;28;20473;-86
2023/10/30 06:29:56;;;;;;;6.38;2.63;;;;;;;13.11;100.00;99450.78;5036194;28;20048;-83
2023/10/30 06:32:23;;;;;;;6.85;2.80;;;;;;;13.45;100.00;99486.53;5057058;28;20021;-86
2023/10/30 06:34:49;;;;;;;6.18;4.07;;;;;;;13.46;100.00;99470.09;5057567;28;20025;-85
2023/10/30 06:37:15;;;;;;;9.70;3.15;;;;;;;13.60;100.00;99457.50;5067950;28;20053;-87
2023/10/30 06:39:42;;;;;;;5.75;2.58;;;;;;;13.75;100.00;99463.63;5096243;28;20025;-91
2023/10/30 06:42:08;;;;;;;9.13;3.53;;;;;;;13.73;100.00;99465.50;5060806;28;20072;-94
2023/10/30 06:44:34;;;;;;;7.15;3.38;;;;;;;13.54;100.00;99422.34;5058501;28;20056;-91
2023/10/30 06:47:03;;;;;;;10.77;3.47;;;;;;;13.90;100.00;99468.97;5059630;28;20104;-85
2023/10/30 06:49:30;;;;;;;11.43;3.55;;;;;;;13.94;100.00;99469.44;5058577;28;20044;-89
2023/10/30 06:51:58;;;;;;;10.07;3.55;;;;;;;14.03;100.00;99465.47;5058862;28;20116;-86
2023/10/30 06:54:25;;;;;;;6.45;3.70;;;;;;;14.05;100.00;99466.47;5067553;28;20008;-84
2023/10/30 06:56:51;;;;;;;7.47;3.55;;;;;;;14.34;100.00;99500.13;5078517;28;20009;-86
2023/10/30 06:59:19;;;;;;;6.93;3.10;;;;;;;14.55;100.00;99514.00;5080026;28;20013;-87
2023/10/30 07:01:47;;;;;;;7.15;3.45;;;;;;;14.64;100.00;99502.16;5072035;28;20021;-93
2023/10/30 07:04:14;;;;;;;5.50;3.42;;;;;;;14.82;100.00;99512.94;5058388;28;20037;-90
2023/10/30 07:06:44;;;;;;;6.30;3.70;;;;;;;14.72;100.00;99469.41;5078651;28;20098;-83
2023/10/30 07:09:12;;;;;;;11.35;3.92;;;;;;;15.04;100.00;99506.88;5076196;28;20050;-90
2023/10/30 07:11:39;;;;;;;8.40;3.38;;;;;;;15.03;100.00;99493.81;5075479;28;20040;-90
2023/10/30 07:14:05;;;;;;;11.15;3.40;;;;;;;15.23;100.00;99504.00;5064841;28;20027;-88
2023/10/30 07:16:38;;;;;;;7.28;2.88;;;;;;;15.28;100.00;99497.41;5056836;28;20124;-84
2023/10/30 07:19:05;;;;;;;7.60;3.10;;;;;;;15.24;100.00;99477.56;5059337;28;20063;-88
2023/10/30 07:21:30;;;;;;;4.43;3.25;;;;;;;15.44;100.00;99495.59;5042948;28;20110;-88
2023/10/30 07:23:56;;;;;;;6.68;3.30;;;;;;;15.50;100.00;99484.78;5056245;28;20025;-89
2023/10/30 07:26:21;;;;;;;6.10;3.72;;;;;;;15.42;100.00;99444.31;5059118;28;20047;-87
2023/10/30 07:28:51;;;;;;;6.63;3.25;;;;;;;15.75;100.00;99479.69;5059455;28;20024;-88
2023/10/30 07:31:20;;;;;;;6.57;3.55;;;;;;;15.85;100.00;99483.72;5059456;28;20118;-88
2023/10/30 07:33:46;;;;;;;8.93;3.08;;;;;;;15.79;100.00;99474.38;5058299;28;20036;-89
2023/10/30 07:36:12;;;;;;;7.60;2.80;;;;;;;15.87;100.00;99483.91;5057761;28;20028;-89
2023/10/30 07:38:37;;;;;;;6.82;3.10;;;;;;;15.67;100.00;99453.63;5057332;28;20021;-89
2023/10/30 07:41:04;;;;;;;11.23;3.28;;;;;;;15.78;100.00;99469.94;5058949;28;20485;-89
2023/10/30 07:43:29;;;;;;;6.68;3.60;;;;;;;15.62;100.00;99431.44;5093351;28;20040;-90
2023/10/30 07:45:55;;;;;;;11.20;4.50;;;;;;;15.50;100.00;99418.53;5094368;28;20029;-89
2023/10/30 07:48:20;;;;;;;7.97;3.83;;;;;;;15.77;100.00;99459.72;5061477;28;20080;-90
2023/10/30 07:50:47;;;;;;;11.50;4.60;;;;;;;15.79;100.00;99457.88;5062954;28;20040;-90
2023/10/30 07:53:16;;;;;;;5.55;2.60;;;;;;;15.76;100.00;99458.94;5061635;28;20062;-90
2023/10/30 07:55:41;;;;;;;6.40;3.28;;;;;;;16.01;100.00;99497.81;5059133;28;20033;-89
2023/10/30 07:58:07;;;;;;;4.10;2.45;;;;;;;16.08;100.00;99494.28;5056736;28;20032;-88
2023/10/30 08:00:33;;;;;;;5.57;2.08;;;;;;;16.38;100.00;99527.81;5055979;28;20039;-86
2023/10/30 08:02:59;;;;;;;7.20;2.17;;;;;;;16.43;100.00;99521.16;5067298;28;20381;-92
2023/10/30 08:05:27;;;;;;;5.68;2.10;;;;;;;16.34;100.00;99498.53;5061245;28;20096;-87
2023/10/30 08:07:54;;;;;;;4.15;1.73;;;;;;;16.57;100.00;99522.75;5056539;28;20028;-90
2023/10/30 08:10:20;;;;;;;5.97;2.20;;;;;;;16.50;100.00;99501.09;5052195;28;20031;-89
2023/10/30 08:12:47;;;;;;;8.30;2.00;;;;;;;16.68;100.00;99521.78;5070784;28;20122;-88
2023/10/30 08:15:14;;;;;;;2.22;1.23;;;;;;;16.67;100.00;99515.22;5067339;28;20044;-92
2023/10/30 08:17:40;;;;;;;2.90;1.83;;;;;;;16.82;100.00;99523.31;5059174;28;20009;-88
2023/10/30 08:20:06;;;;;;;2.17;1.23;;;;;;;16.83;100.00;99528.53;5057023;28;20044;-88
2023/10/30 08:22:35;;;;;;;5.90;1.98;;;;;;;16.93;100.00;99531.75;5059020;28;20109;-92
2023/10/30 08:25:00;;;;;;;1.42;1.27;;;;;;;16.75;100.00;99498.00;5041287;28;20108;-92
2023/10/30 08:27:27;;;;;;;5.82;1.90;;;;;;;16.91;100.00;99512.09;5039830;28;20081;-91
2023/10/30 08:29:53;;;;;;;4.75;1.85;;;;;;;17.02;100.00;99513.19;5076197;28;20035;-91
2023/10/30 08:32:18;;;;;;;7.65;2.28;;;;;;;17.17;100.00;99530.72;5079487;28;20024;-88
2023/10/30 08:34:46;;;;;;;5.07;2.03;;;;;;;17.34;100.00;99549.22;5066861;28;20037;-86
2023/10/30 08:37:13;;;;;;;4.55;2.42;;;;;;;17.46;100.00;99541.13;5076281;28;20008;-87
2023/10/30 08:39:39;;;;;;;4.18;2.10;;;;;;;17.44;100.00;99528.56;5085016;28;20100;-85
2023/10/30 08:42:07;;;;;;;10.40;2.08;;;;;;;17.48;100.00;99508.78;5085282;28;20035;-88
2023/10/30 08:44:34;;;;;;;4.43;2.00;;;;;;;17.51;100.00;99511.31;5064056;28;20402;-91
2023/10/30 08:46:59;;;;;;;4.55;1.60;;;;;;;17.74;100.00;99547.00;5041574;28;20086;-82
2023/10/30 08:49:26;;;;;;;5.03;2.17;;;;;;;17.76;100.00;99540.69;5054794;28;20045;-79
2023/10/30 08:51:52;;;;;;;4.78;1.90;;;;;;;17.80;100.00;99535.31;5073003;28;20028;-90
2023/10/30 08:54:19;;;;;;;2.30;1.70;;;;;;;17.77;100.00;99517.00;5073845;28;20056;-87
2023/10/30 08:56:45;;;;;;;3.30;1.80;;;;;;;17.82;100.00;99533.44;5075469;28;20148;-88
2023/10/30 08:59:12;;;;;;;5.28;1.83;;;;;;;17.76;100.00;99527.00;5074716;28;20132;-86
2023/10/30 09:01:39;;;;;;;3.60;1.85;;;;;;;17.84;100.00;99542.31;5074987;28;20047;-81
2023/10/30 09:04:05;;;;;;;4.40;1.70;;;;;;;17.66;100.00;99505.72;5074491;28;20035;-84
2023/10/30 09:06:32;;;;;;;5.40;1.55;;;;;;;17.79;100.00;99522.97;5073304;28;20021;-85
2023/10/30 09:08:58;;;;;;;2.20;1.30;;;;;;;17.82;100.00;99527.66;5073216;28;20036;-83
2023/10/30 09:11:26;;;;;;;2.80;1.73;;;;;;;17.89;100.00;99528.28;5073711;28;20490;-85
2023/10/30 09:13:53;;;;;;;2.88;1.40;;;;;;;17.88;100.00;99530.41;5070856;28;20127;-83
2023/10/30 09:16:19;;;;;;;4.22;1.48;;;;;;;17.68;100.00;99496.50;5052724;28;20067;-82
2023/10/30 09:18:45;;;;;;;1.60;1.08;;;;;;;17.77;100.00;99511.22;5055269;28;20028;-81
2023/10/30 09:21:12;;;;;;;1.40;1.30;;;;;;;17.89;100.00;99528.28;5055002;28;20066;-87
2023/10/30 09:23:41;;;;;;;2.65;1.55;;;;;;;17.88;100.00;99529.63;5055042;28;20036;-83
2023/10/30 09:26:10;;;;;;;1.48;1.23;;;;;;;17.90;100.00;99529.84;5053667;28;20033;-81
2023/10/30 09:28:36;;;;;;;2.22;1.17;;;;;;;17.88;100.00;99523.84;5054805;28;20029;-81
2023/10/30 09:31:03;;;;;;;2.03;1.40;;;;;;;17.95;100.00;99540.47;5054029;28;20119;-82
2023/10/30 09:33:29;;;;;;;4.03;1.90;;;;;;;17.97;100.00;99540.69;5054368;28;20033;-84
2023/10/30 09:35:57;;;;;;;4.78;1.58;;;;;;;17.90;100.00;99524.03;5054372;28;20025;-84
2023/10/30 09:38:24;;;;;;;4.85;1.40;;;;;;;17.92;100.00;99527.16;5055361;28;20021;-84
2023/10/30 09:41:02;;;;;;;3.20;1.23;;;;;;;17.96;100.00;99521.81;5057606;28;20024;-86
2023/10/30 09:43:29;;;;;;;1.45;1.13;;;;;;;17.96;100.00;99505.22;5055650;28;20033;-84
2023/10/30 09:45:58;;;;;;;3.63;1.65;;;;;;;17.98;100.00;99513.34;5056144;28;20471;-85
2023/10/30 09:48:24;;;;;;;5.28;1.50;;;;;;;17.99;100.00;99509.88;5058725;28;20049;-89
2023/10/30 09:50:52;;;;;;;8.95;1.45;;;;;;;18.02;100.00;99514.53;5054387;28;20037;-85
2023/10/30 09:53:19;;;;;;;2.88;1.30;;;;;;;17.96;100.00;99493.66;5037500;28;20036;-84
2023/10/30 09:55:45;;;;;;;2.47;1.27;;;;;;;18.06;100.00;99503.41;5054146;28;20040;-85
2023/10/30 09:58:12;;;;;;;2.17;1.40;;;;;;;18.09;100.00;99513.81;5054550;28;20031;-85
2023/10/30 10:00:39;;;;;;;2.60;1.10;;;;;;;18.13;100.00;99534.47;5054839;28;20348;-86
2023/10/30 10:03:07;;;;;;;2.53;1.00;;;;;;;18.14;100.00;99533.16;5058355;28;20094;-83
2023/10/30 10:05:34;;;;;;;2.53;1.30;;;;;;;18.17;100.00;99522.56;5060544;28;20102;-85
2023/10/30 10:08:01;;;;;;;7.03;1.35;;;;;;;18.12;100.00;99532.94;5073091;28;20359;-89
2023/10/30 10:10:26;;;;;;;1.60;1.20;;;;;;;18.10;100.00;99521.16;5069121;28;20047;-86
2023/10/30 10:12:52;;;;;;;1.77;1.05;;;;;;;18.17;100.00;99522.56;5066490;28;20029;-87
2023/10/30 10:15:21;;;;;;;5.93;1.38;;;;;;;18.18;100.00;99527.00;5065812;28;20033;-89
2023/10/30 10:17:51;;;;;;;3.42;1.50;;;;;;;18.06;100.00;99503.41;5061988;28;20055;-85
2023/10/30 10:20:21;;;;;;;3.42;1.10;;;;;;;18.07;100.00;99499.16;5061662;28;20052;-87
2023/10/30 10:22:48;;;;;;;3.92;1.30;;;;;;;18.17;100.00;99513.91;5062882;28;20052;-87
2023/10/30 10:25:18;;;;;;;3.22;1.30;;;;;;;17.99;100.00;99452.06;5046943;28;20031;-87
2023/10/30 10:27:44;;;;;;;3.58;1.13;;;;;;;18.36;100.00;99502.13;5061891;28;20025;-87
2023/10/30 10:30:10;;;;;;;3.00;1.27;;;;;;;18.34;100.00;99481.66;5060243;28;20025;-85
2023/10/30 10:32:37;;;;;;;4.20;1.30;;;;;;;18.48;100.00;99495.44;5081271;28;20089;-84
2023/10/30 10:35:06;;;;;;;1.35;1.00;;;;;;;18.59;100.00;99497.25;5079683;28;20039;-85
2023/10/30 10:37:32;;;;;;;2.08;1.20;;;;;;;18.64;100.00;99500.00;5078945;28;20036;-85
2023/10/30 10:39:59;;;;;;;1.98;1.20;;;;;;;18.67;100.00;99498.84;5063488;28;20032;-85
2023/10/30 10:42:27;;;;;;;3.13;1.10;;;;;;;18.71;100.00;99497.72;5082604;28;20050;-83
2023/10/30 10:44:55;;;;;;;2.58;1.05;;;;;;;18.68;100.00;99488.81;5080963;28;20130;-84
2023/10/30 10:47:25;;;;;;;1.85;1.08;;;;;;;18.72;100.00;99479.03;5085846;28;20082;-89
2023/10/30 10:49:51;;;;;;;9.38;1.83;;;;;;;18.71;100.00;99478.25;5069271;28;20055;-87
2023/10/30 10:52:25;;;;;;;4.10;1.00;;;;;;;18.75;100.00;99486.56;5068076;28;20028;-86
2023/10/30 10:55:05;;;;;;;6.82;1.05;;;;;;;18.74;100.00;99485.78;5077562;28;20036;-84
2023/10/30 10:57:54;;;;;;;2.80;1.20;;;;;;;18.72;100.00;99482.69;5084791;28;20466;-87
2023/10/30 11:00:28;;;;;;;1.33;1.00;;;;;;;18.72;100.00;99473.22;5062208;28;20036;-86
2023/10/30 11:03:00;;;;;;;1.23;1.10;;;;;;;18.68;100.00;99465.69;5078829;28;20021;-85
2023/10/30 11:05:29;;;;;;;2.47;1.10;;;;;;;18.67;100.00;99464.13;5060828;28;20036;-88
2023/10/30 11:08:18;;;;;;;3.10;0.95;;;;;;;18.69;100.00;99461.44;5079149;28;20377;-85
2023/10/30 11:11:17;;;;;;;3.15;1.17;;;;;;;18.78;100.00;99473.81;5077394;28;20080;-85
2023/10/30 11:14:15;;;;;;;4.18;1.48;;;;;;;18.81;100.00;99464.00;5076146;28;20036;-85
2023/10/30 11:17:06;;;;;;;8.05;0.90;;;;;;;18.85;100.00;99453.63;5095164;28;20047;-87
2023/10/30 11:19:36;;;;;;;5.40;1.13;;;;;;;18.90;100.00;99446.09;5100524;28;20021;-87
2023/10/30 11:22:09;;;;;;;2.67;0.90;;;;;;;18.90;100.00;99437.41;5100637;28;20012;-83
2023/10/30 11:24:41;;;;;;;2.28;1.00;;;;;;;18.98;100.00;99446.91;5100331;28;20012;-87